Time;durP1;ratioP1;P1;durP2;ratioP2;P2;SDS_P1;SDS_P2;PMS_P1;PMS_P2;Temp;Humidity;BMP_temperature;BMP_pressure;BME280_temperature;BME280_humidity;BME280_pressure;Samples;Min_cycle;Max_cycle;Signal;HPM_P1;HPM_P2
2023/07/20 00:00:13;;;;;;;1.35;0.90;;;16.50;99.90;;;;;;5073231;28;20256;-85
2023/07/20 00:02:39;;;;;;;3.58;1.00;;;16.40;99.90;;;;;;5073125;28;20188;-85
2023/07/20 00:05:06;;;;;;;1.25;0.80;;;16.40;99.90;;;;;;5073095;28;20170;-86
2023/07/20 00:07:31;;;;;;;0.95;0.80;;;16.30;99.90;;;;;;5073307;28;20209;-86
2023/07/20 00:09:57;;;;;;;2.03;0.85;;;16.30;99.90;;;;;;5074254;28;20188;-85
2023/07/20 00:12:23;;;;;;;1.58;0.98;;;16.30;99.90;;;;;;5077019;28;20238;-86
2023/07/20 00:14:48;;;;;;;0.95;0.73;;;16.30;99.90;;;;;;5076852;28;20185;-84
2023/07/20 00:17:14;;;;;;;2.35;0.90;;;16.30;99.90;;;;;;5077116;28;20178;-85
2023/07/20 00:19:40;;;;;;;2.42;1.00;;;16.30;99.90;;;;;;5074106;28;20206;-85
2023/07/20 00:22:05;;;;;;;1.27;0.85;;;16.20;99.90;;;;;;5057085;28;20228;-86
2023/07/20 00:24:32;;;;;;;2.58;0.93;;;16.20;99.90;;;;;;5056969;28;20655;-85
2023/07/20 00:26:58;;;;;;;1.42;0.90;;;16.20;99.90;;;;;;5056837;28;20613;-85
2023/07/20 00:29:23;;;;;;;2.30;1.10;;;16.20;99.90;;;;;;5056617;28;20247;-86
2023/07/20 00:31:49;;;;;;;3.40;0.85;;;16.10;99.90;;;;;;5056770;28;20178;-85
2023/07/20 00:34:16;;;;;;;1.52;0.80;;;16.10;99.90;;;;;;5057846;28;20177;-86
2023/07/20 00:36:42;;;;;;;1.08;0.80;;;16.10;99.90;;;;;;5056003;28;20676;-85
2023/07/20 00:39:07;;;;;;;1.67;1.00;;;16.10;99.90;;;;;;5056330;28;20264;-86
2023/07/20 00:44:08;;;;;;;4.10;1.00;;;16.00;99.90;;;;;;5348581;23;20258;-90
2023/07/20 00:46:34;;;;;;;2.28;0.90;;;16.00;99.90;;;;;;5016964;28;20175;-88
2023/07/20 00:49:01;;;;;;;1.38;0.88;;;16.00;99.90;;;;;;5016937;28;20207;-89
2023/07/20 00:51:27;;;;;;;3.15;0.88;;;16.00;99.90;;;;;;5017090;28;20183;-89
2023/07/20 00:53:55;;;;;;;1.20;1.00;;;16.00;99.90;;;;;;5016793;28;20183;-89
2023/07/20 00:56:22;;;;;;;4.38;1.00;;;15.90;99.90;;;;;;5017089;28;20851;-89
2023/07/20 00:58:48;;;;;;;1.02;0.90;;;15.90;99.90;;;;;;5016501;28;20537;-88
2023/07/20 01:01:14;;;;;;;1.42;1.00;;;15.80;99.90;;;;;;5016567;28;20176;-89
2023/07/20 01:03:40;;;;;;;1.13;0.80;;;15.80;99.90;;;;;;5016744;28;20183;-89
2023/07/20 01:06:24;;;;;;;1.27;0.90;;;15.80;99.90;;;;;;5016870;28;20175;-88
2023/07/20 01:09:07;;;;;;;1.42;0.90;;;15.80;99.90;;;;;;5016829;28;20214;-89
2023/07/20 01:11:40;;;;;;;1.35;0.98;;;15.70;99.90;;;;;;5016730;28;20167;-88
2023/07/20 01:14:06;;;;;;;0.88;0.88;;;15.70;99.90;;;;;;5023752;28;20211;-88
2023/07/20 01:16:33;;;;;;;1.02;0.93;;;15.70;99.90;;;;;;4996867;28;20168;-88
2023/07/20 01:18:59;;;;;;;1.52;0.90;;;15.60;99.90;;;;;;4996490;28;20284;-87
2023/07/20 01:21:39;;;;;;;1.30;0.90;;;15.60;99.90;;;;;;4996312;28;20244;-88
2023/07/20 01:24:36;;;;;;;1.20;0.98;;;15.50;99.90;;;;;;4996756;28;20203;-89
2023/07/20 01:27:40;;;;;;;1.13;0.98;;;15.50;99.90;;;;;;4996485;28;20172;-90
2023/07/20 01:30:27;;;;;;;1.13;0.90;;;15.50;99.90;;;;;;5012669;28;20187;-88
2023/07/20 01:32:56;;;;;;;3.05;1.00;;;15.50;99.90;;;;;;5013052;28;20211;-88
2023/07/20 01:35:28;;;;;;;1.10;0.90;;;15.40;99.90;;;;;;4995883;28;20179;-88
2023/07/20 01:37:55;;;;;;;1.15;0.85;;;15.30;99.90;;;;;;4996889;28;20171;-88
2023/07/20 01:40:23;;;;;;;1.23;0.88;;;15.30;99.90;;;;;;4996876;28;20196;-88
2023/07/20 01:42:48;;;;;;;1.00;0.90;;;15.30;99.90;;;;;;4995987;28;20188;-88
2023/07/20 01:45:14;;;;;;;1.10;1.00;;;15.30;99.90;;;;;;5014011;28;20188;-88
2023/07/20 01:47:40;;;;;;;2.47;0.90;;;15.30;99.90;;;;;;5015869;28;20214;-88
2023/07/20 01:50:07;;;;;;;1.55;1.10;;;15.30;99.90;;;;;;5015731;28;20179;-89
2023/07/20 01:52:32;;;;;;;1.63;1.10;;;15.30;99.90;;;;;;5015483;28;20207;-87
2023/07/20 01:54:58;;;;;;;0.95;0.88;;;15.20;99.90;;;;;;5015309;28;20640;-88
2023/07/20 01:57:24;;;;;;;2.70;1.13;;;15.20;99.90;;;;;;5015612;28;20171;-88
2023/07/20 01:59:49;;;;;;;1.48;1.10;;;15.20;99.90;;;;;;5015226;28;20560;-88
2023/07/20 02:02:15;;;;;;;1.75;1.08;;;15.20;99.90;;;;;;5015420;28;20282;-88
2023/07/20 02:04:41;;;;;;;2.15;1.25;;;15.20;99.90;;;;;;5015270;28;20179;-87
2023/07/20 02:07:07;;;;;;;1.80;1.00;;;15.20;99.90;;;;;;5015452;28;20168;-88
2023/07/20 02:09:32;;;;;;;1.23;1.00;;;15.10;99.90;;;;;;5015176;28;20187;-88
2023/07/20 02:11:58;;;;;;;1.20;1.10;;;15.10;99.90;;;;;;5015305;28;20238;-87
2023/07/20 02:14:24;;;;;;;1.02;1.00;;;15.10;99.90;;;;;;5016183;28;20516;-88
2023/07/20 02:16:53;;;;;;;2.38;1.20;;;15.10;99.90;;;;;;5015418;28;20180;-87
2023/07/20 02:19:20;;;;;;;1.63;1.00;;;15.10;99.90;;;;;;5014890;28;20202;-88
2023/07/20 02:21:46;;;;;;;1.20;1.05;;;15.10;99.90;;;;;;5016347;28;20178;-87
2023/07/20 02:24:13;;;;;;;1.77;1.17;;;15.10;99.90;;;;;;5016019;28;20175;-88
2023/07/20 02:26:39;;;;;;;1.17;0.77;;;15.10;99.90;;;;;;5014953;28;20171;-88
2023/07/20 02:29:05;;;;;;;2.47;1.15;;;15.10;99.90;;;;;;5014399;28;20211;-87
2023/07/20 02:31:31;;;;;;;1.23;1.13;;;15.20;99.90;;;;;;5014710;28;20704;-87
2023/07/20 02:33:57;;;;;;;2.33;1.10;;;15.10;99.90;;;;;;5013853;28;20175;-87
2023/07/20 02:36:23;;;;;;;0.93;0.90;;;15.10;99.90;;;;;;5014644;28;20181;-87
2023/07/20 02:38:49;;;;;;;2.00;0.93;;;15.20;99.90;;;;;;5014672;28;20175;-88
2023/07/20 02:41:15;;;;;;;2.65;1.20;;;15.10;99.90;;;;;;5015536;28;20182;-87
2023/07/20 02:43:40;;;;;;;1.50;0.98;;;15.20;99.90;;;;;;5013873;28;20314;-87
2023/07/20 02:46:08;;;;;;;1.08;0.98;;;15.20;99.90;;;;;;5014357;28;20179;-87
2023/07/20 02:48:34;;;;;;;1.70;1.20;;;15.20;99.90;;;;;;5015656;28;20211;-86
2023/07/20 02:51:00;;;;;;;0.85;0.82;;;15.20;99.90;;;;;;5014594;28;20266;-88
2023/07/20 02:53:26;;;;;;;1.13;1.00;;;15.20;99.90;;;;;;5014420;28;20206;-87
2023/07/20 02:55:55;;;;;;;1.50;1.10;;;15.20;99.90;;;;;;5014698;28;20187;-87
2023/07/20 02:58:20;;;;;;;0.93;0.80;;;15.20;99.90;;;;;;5014092;28;20270;-87
2023/07/20 03:00:46;;;;;;;2.08;1.00;;;15.20;99.90;;;;;;5013932;28;20263;-88
2023/07/20 03:03:12;;;;;;;2.15;1.05;;;15.20;99.90;;;;;;5015343;28;20179;-87
2023/07/20 03:05:41;;;;;;;2.03;0.90;;;15.10;99.90;;;;;;5015265;28;20182;-87
2023/07/20 03:08:07;;;;;;;1.75;0.93;;;15.10;99.90;;;;;;5014152;28;20708;-87
2023/07/20 03:10:38;;;;;;;1.75;1.00;;;15.10;99.90;;;;;;5014240;28;20275;-87
2023/07/20 03:13:03;;;;;;;2.45;0.98;;;15.10;99.90;;;;;;5013509;28;20182;-87
2023/07/20 03:15:31;;;;;;;2.40;0.90;;;15.10;99.90;;;;;;5013987;28;20183;-87
2023/07/20 03:17:58;;;;;;;1.27;0.82;;;15.00;99.90;;;;;;5014357;28;20629;-87
2023/07/20 03:20:24;;;;;;;2.80;1.10;;;15.00;99.90;;;;;;5013001;28;20187;-88
2023/07/20 03:22:50;;;;;;;1.42;0.80;;;15.00;99.90;;;;;;5014336;28;20179;-88
2023/07/20 03:25:25;;;;;;;1.63;0.88;;;14.90;99.90;;;;;;5014196;28;20290;-88
2023/07/20 03:27:50;;;;;;;1.33;0.70;;;14.90;99.90;;;;;;5013957;28;20276;-88
2023/07/20 03:30:16;;;;;;;1.48;0.80;;;14.90;99.90;;;;;;5013664;28;20183;-88
2023/07/20 03:32:42;;;;;;;2.25;0.80;;;14.90;99.90;;;;;;5013822;28;20183;-88
2023/07/20 03:35:08;;;;;;;1.30;1.00;;;14.90;99.90;;;;;;5013314;28;20198;-87
2023/07/20 03:37:35;;;;;;;1.95;0.82;;;14.90;99.90;;;;;;5013260;28;20261;-87
2023/07/20 03:40:02;;;;;;;1.20;0.93;;;14.90;99.90;;;;;;5013499;28;20262;-87
2023/07/20 03:42:28;;;;;;;2.88;0.95;;;14.90;99.90;;;;;;5013465;28;20274;-87
2023/07/20 03:44:54;;;;;;;1.58;1.00;;;14.90;99.90;;;;;;5015735;28;20262;-87
2023/07/20 03:47:24;;;;;;;0.77;0.77;;;14.90;99.90;;;;;;5017759;28;20179;-87
2023/07/20 03:49:50;;;;;;;2.33;0.98;;;14.90;99.90;;;;;;5017876;28;20241;-87
2023/07/20 03:52:15;;;;;;;2.38;1.05;;;14.90;99.90;;;;;;5018028;28;20622;-88
2023/07/20 03:54:41;;;;;;;1.38;1.00;;;14.90;99.90;;;;;;5018002;28;20266;-87
2023/07/20 03:57:09;;;;;;;2.63;1.00;;;14.90;99.90;;;;;;5017919;28;20265;-87
2023/07/20 03:59:38;;;;;;;1.20;0.82;;;15.00;99.90;;;;;;5018562;28;20246;-87
2023/07/20 04:02:05;;;;;;;1.52;0.95;;;15.00;99.90;;;;;;5017498;28;20171;-86
2023/07/20 04:04:31;;;;;;;1.05;0.95;;;15.00;99.90;;;;;;5017230;28;20202;-87
2023/07/20 04:07:01;;;;;;;1.35;0.80;;;15.00;99.90;;;;;;5017601;28;20610;-87
2023/07/20 04:09:26;;;;;;;1.27;0.77;;;15.00;99.90;;;;;;5017194;28;20739;-87
2023/07/20 04:11:52;;;;;;;1.25;1.00;;;15.00;99.90;;;;;;5017151;28;20654;-88
2023/07/20 04:14:18;;;;;;;1.50;0.95;;;15.00;99.90;;;;;;5017089;28;20193;-87
2023/07/20 04:16:47;;;;;;;2.55;0.85;;;15.00;99.90;;;;;;5018108;28;20536;-86
2023/07/20 04:19:12;;;;;;;0.80;0.80;;;15.00;99.90;;;;;;5017084;28;20175;-86
2023/07/20 04:21:41;;;;;;;2.90;1.00;;;15.00;99.90;;;;;;5018148;28;20511;-87
2023/07/20 04:24:07;;;;;;;1.63;0.90;;;15.00;99.90;;;;;;5017099;28;20183;-87
2023/07/20 04:26:35;;;;;;;1.15;0.82;;;15.10;99.90;;;;;;5016892;28;20525;-86
2023/07/20 04:29:01;;;;;;;2.15;1.10;;;15.10;99.90;;;;;;5016707;28;20240;-87
2023/07/20 04:31:26;;;;;;;1.40;1.00;;;15.10;99.90;;;;;;5016863;28;20175;-87
2023/07/20 04:33:52;;;;;;;4.30;0.80;;;15.10;99.90;;;;;;5016911;28;20193;-87
2023/07/20 04:36:19;;;;;;;3.05;1.00;;;15.20;99.90;;;;;;5017080;28;20176;-86
2023/07/20 04:38:48;;;;;;;3.15;1.05;;;15.20;99.90;;;;;;5016623;28;20201;-87
2023/07/20 04:41:14;;;;;;;2.75;0.88;;;15.30;99.90;;;;;;5017927;28;20309;-86
2023/07/20 04:43:44;;;;;;;1.25;0.95;;;15.50;99.90;;;;;;5016080;28;20235;-87
2023/07/20 04:46:14;;;;;;;1.13;0.90;;;15.50;99.90;;;;;;5017858;28;20237;-88
2023/07/20 04:48:40;;;;;;;2.00;0.90;;;15.60;99.90;;;;;;5016667;28;20215;-88
2023/07/20 04:51:06;;;;;;;1.30;0.95;;;15.70;99.90;;;;;;5016427;28;20521;-88
2023/07/20 04:53:32;;;;;;;0.85;0.77;;;15.70;99.90;;;;;;5016587;28;20187;-89
2023/07/20 04:55:57;;;;;;;1.08;0.70;;;15.80;99.90;;;;;;5015988;28;20187;-88
2023/07/20 04:58:24;;;;;;;1.98;0.93;;;15.90;99.90;;;;;;5016247;28;20187;-88
2023/07/20 05:00:51;;;;;;;1.67;1.00;;;15.80;99.90;;;;;;5016765;28;20182;-88
2023/07/20 05:03:17;;;;;;;1.67;0.90;;;15.70;99.90;;;;;;5016367;28;20278;-87
2023/07/20 05:05:43;;;;;;;1.05;0.90;;;15.80;99.90;;;;;;5016297;28;20176;-87
2023/07/20 05:08:17;;;;;;;1.13;0.80;;;15.80;99.90;;;;;;5017617;28;20253;-88
2023/07/20 05:10:43;;;;;;;1.38;1.10;;;15.70;99.90;;;;;;5016386;28;20205;-87
2023/07/20 05:13:09;;;;;;;0.73;0.70;;;15.80;99.90;;;;;;5016169;28;20313;-89
2023/07/20 05:15:35;;;;;;;2.00;1.05;;;15.80;99.90;;;;;;5017238;28;20179;-88
2023/07/20 05:18:01;;;;;;;2.45;0.93;;;15.80;99.90;;;;;;5016579;28;20255;-88
2023/07/20 05:20:27;;;;;;;1.40;0.80;;;15.70;99.90;;;;;;5016399;28;20183;-89
2023/07/20 05:22:52;;;;;;;1.35;1.05;;;15.80;99.90;;;;;;5016279;28;20176;-90
2023/07/20 05:25:18;;;;;;;1.48;0.90;;;15.80;99.90;;;;;;5016229;28;20190;-89
2023/07/20 05:27:46;;;;;;;1.65;1.15;;;15.70;99.90;;;;;;5016091;28;20215;-89
2023/07/20 05:30:12;;;;;;;0.90;0.90;;;15.70;99.90;;;;;;5016346;28;20598;-90
2023/07/20 05:32:37;;;;;;;3.97;0.98;;;15.80;99.90;;;;;;5016411;28;20179;-90
2023/07/20 05:35:04;;;;;;;1.27;0.90;;;15.80;99.90;;;;;;5016359;28;20237;-90
2023/07/20 05:37:31;;;;;;;1.35;0.77;;;15.80;99.90;;;;;;5016351;28;20171;-89
2023/07/20 05:39:57;;;;;;;1.00;0.90;;;15.80;99.90;;;;;;5015992;28;20175;-88
2023/07/20 05:42:23;;;;;;;3.00;1.00;;;15.70;99.90;;;;;;5015867;28;20175;-89
2023/07/20 05:44:49;;;;;;;1.80;0.90;;;15.70;99.90;;;;;;5015574;28;20234;-91
2023/07/20 05:47:19;;;;;;;2.22;1.00;;;15.70;99.90;;;;;;5016272;28;20176;-90
2023/07/20 05:49:45;;;;;;;1.15;0.77;;;15.80;99.90;;;;;;5015900;28;20241;-89
2023/07/20 05:52:11;;;;;;;2.35;1.23;;;15.80;99.90;;;;;;5015781;28;20614;-88
2023/07/20 05:54:36;;;;;;;0.68;0.68;;;15.70;99.90;;;;;;5015828;28;20183;-88
2023/07/20 05:57:05;;;;;;;1.58;0.93;;;15.80;99.90;;;;;;5015726;28;20265;-88
2023/07/20 05:59:31;;;;;;;1.63;0.80;;;15.70;99.90;;;;;;5014795;28;20667;-87
2023/07/20 06:01:57;;;;;;;3.20;1.10;;;15.70;99.90;;;;;;5014921;28;20183;-89
2023/07/20 06:04:23;;;;;;;3.63;1.30;;;15.70;99.90;;;;;;5005831;28;20195;-89
2023/07/20 06:06:49;;;;;;;2.72;1.23;;;15.70;99.90;;;;;;4989610;28;20179;-90
2023/07/20 06:09:15;;;;;;;3.55;0.90;;;15.70;99.90;;;;;;5015583;28;20238;-91
2023/07/20 06:11:41;;;;;;;2.20;1.05;;;15.70;99.90;;;;;;5014682;28;20190;-89
2023/07/20 06:14:07;;;;;;;3.33;0.95;;;15.70;99.90;;;;;;5014906;28;20175;-88
2023/07/20 06:16:32;;;;;;;2.90;1.20;;;15.70;99.90;;;;;;5014733;28;20177;-87
2023/07/20 06:19:00;;;;;;;2.83;1.30;;;15.70;99.90;;;;;;5013914;28;20202;-89
2023/07/20 06:21:26;;;;;;;3.10;1.30;;;15.70;99.90;;;;;;5014607;28;20182;-88
2023/07/20 06:23:52;;;;;;;1.83;1.20;;;15.70;99.90;;;;;;5013474;28;20194;-89
2023/07/20 06:26:17;;;;;;;2.13;1.40;;;15.60;99.90;;;;;;5015662;28;20258;-86
2023/07/20 06:28:44;;;;;;;3.53;1.52;;;15.60;99.90;;;;;;5014424;28;20306;-88
2023/07/20 06:31:10;;;;;;;1.92;1.50;;;15.60;99.90;;;;;;5012873;28;20171;-88
2023/07/20 06:33:36;;;;;;;2.95;1.58;;;15.60;99.90;;;;;;5014381;28;20191;-89
2023/07/20 06:36:02;;;;;;;2.50;1.77;;;15.60;99.90;;;;;;5014118;28;20175;-88
2023/07/20 06:38:29;;;;;;;4.05;1.77;;;15.60;99.90;;;;;;5013682;28;20237;-88
2023/07/20 06:40:55;;;;;;;2.50;1.45;;;15.60;99.90;;;;;;5014098;28;20222;-87
2023/07/20 06:43:20;;;;;;;2.53;0.98;;;15.50;99.90;;;;;;5013939;28;20231;-87
2023/07/20 06:45:55;;;;;;;1.00;0.90;;;15.50;99.90;;;;;;5014059;28;20182;-89
2023/07/20 06:48:22;;;;;;;1.40;0.60;;;15.40;99.90;;;;;;5013979;28;20214;-87
2023/07/20 06:50:47;;;;;;;3.58;0.60;;;15.20;99.90;;;;;;5030588;28;20400;-88
2023/07/20 06:53:13;;;;;;;1.35;0.80;;;15.10;99.90;;;;;;5014092;28;20615;-87
2023/07/20 06:55:39;;;;;;;2.20;0.65;;;15.10;99.90;;;;;;5014133;28;20370;-90
2023/07/20 06:58:12;;;;;;;1.40;0.57;;;15.10;99.90;;;;;;5014426;28;20226;-89
2023/07/20 07:00:42;;;;;;;0.73;0.60;;;15.10;99.90;;;;;;5013901;28;20186;-89
2023/07/20 07:03:07;;;;;;;2.05;0.60;;;15.10;99.90;;;;;;5013982;28;20183;-88
2023/07/20 07:05:36;;;;;;;0.85;0.68;;;15.20;99.90;;;;;;5012877;28;20188;-89
2023/07/20 07:08:05;;;;;;;1.63;0.50;;;15.20;99.90;;;;;;5013494;28;20207;-89
2023/07/20 07:10:31;;;;;;;1.05;0.57;;;15.30;99.90;;;;;;5013625;28;20222;-88
2023/07/20 07:12:56;;;;;;;0.82;0.55;;;15.40;99.90;;;;;;5013646;28;20179;-88
2023/07/20 07:15:22;;;;;;;0.47;0.43;;;15.50;99.90;;;;;;4991277;28;20226;-88
2023/07/20 07:17:48;;;;;;;1.27;0.50;;;15.50;99.90;;;;;;5000543;28;20219;-88
2023/07/20 07:20:14;;;;;;;1.23;0.50;;;15.60;99.90;;;;;;5013826;28;20206;-90
2023/07/20 07:22:40;;;;;;;1.17;0.70;;;15.70;99.90;;;;;;5013230;28;20566;-87
2023/07/20 07:25:07;;;;;;;0.90;0.52;;;15.80;99.90;;;;;;5014470;28;20564;-89
2023/07/20 07:27:33;;;;;;;0.55;0.45;;;15.90;99.90;;;;;;5011751;28;20190;-87
2023/07/20 07:30:03;;;;;;;0.50;0.40;;;16.10;99.90;;;;;;5014628;28;20211;-87
2023/07/20 07:32:29;;;;;;;0.75;0.40;;;16.20;99.90;;;;;;5012992;28;20168;-88
2023/07/20 07:34:55;;;;;;;0.57;0.40;;;16.30;99.90;;;;;;5011830;28;20529;-87
2023/07/20 07:37:21;;;;;;;0.50;0.40;;;16.40;99.90;;;;;;5012742;28;20175;-86
2023/07/20 07:39:47;;;;;;;0.90;0.40;;;16.50;99.90;;;;;;5011638;28;20187;-86
2023/07/20 07:42:13;;;;;;;1.05;0.50;;;16.50;99.90;;;;;;5013665;28;20168;-87
2023/07/20 07:44:38;;;;;;;0.90;0.40;;;16.70;99.90;;;;;;5012732;28;20231;-86
2023/07/20 07:47:04;;;;;;;0.80;0.47;;;17.00;99.90;;;;;;5012527;28;20183;-87
2023/07/20 07:49:31;;;;;;;1.33;0.50;;;17.20;99.90;;;;;;5012762;28;20293;-87
2023/07/20 07:51:57;;;;;;;0.45;0.40;;;17.50;99.90;;;;;;5014382;28;20191;-86
2023/07/20 07:54:22;;;;;;;1.10;0.30;;;17.60;99.90;;;;;;5014431;28;20226;-88
2023/07/20 07:56:48;;;;;;;0.50;0.40;;;17.70;99.90;;;;;;5013667;28;20202;-87
2023/07/20 07:59:15;;;;;;;2.97;0.50;;;17.60;99.90;;;;;;5010883;28;20230;-95
2023/07/20 08:01:41;;;;;;;0.47;0.30;;;17.60;99.90;;;;;;5013164;28;20506;-88
2023/07/20 08:04:06;;;;;;;3.03;0.45;;;17.50;99.90;;;;;;5013086;28;20181;-91
2023/07/20 08:06:32;;;;;;;2.10;0.60;;;17.40;99.90;;;;;;5012838;28;20253;-88
2023/07/20 08:08:59;;;;;;;3.17;0.60;;;17.30;99.90;;;;;;5013189;28;20314;-87
2023/07/20 08:11:25;;;;;;;0.80;0.40;;;17.40;99.90;;;;;;5011976;28;20517;-90
2023/07/20 08:13:51;;;;;;;1.90;0.40;;;17.40;99.90;;;;;;5013610;28;20262;-90
2023/07/20 08:16:16;;;;;;;0.93;0.40;;;17.50;99.90;;;;;;5004969;28;20206;-89
2023/07/20 08:18:43;;;;;;;0.63;0.50;;;17.80;99.90;;;;;;4993891;28;20234;-88
2023/07/20 08:21:09;;;;;;;0.88;0.50;;;18.00;99.90;;;;;;4994863;28;20215;-88
2023/07/20 08:23:35;;;;;;;0.93;0.50;;;18.00;99.90;;;;;;4996284;28;20188;-88
2023/07/20 08:26:01;;;;;;;1.00;0.55;;;18.10;99.90;;;;;;5013365;28;20178;-90
2023/07/20 08:28:29;;;;;;;1.13;0.40;;;18.10;99.90;;;;;;5013446;28;20238;-89
2023/07/20 08:30:55;;;;;;;0.50;0.40;;;18.00;99.90;;;;;;5014196;28;20653;-91
2023/07/20 08:33:20;;;;;;;0.73;0.40;;;17.90;99.90;;;;;;5018019;28;20163;-90
2023/07/20 08:35:47;;;;;;;1.52;0.57;;;17.80;99.90;;;;;;5016978;28;20673;-88
2023/07/20 08:38:13;;;;;;;2.65;0.65;;;17.70;99.90;;;;;;5016943;28;20581;-88
2023/07/20 08:40:43;;;;;;;1.70;0.50;;;17.80;99.90;;;;;;5016644;28;20187;-90
2023/07/20 08:43:11;;;;;;;1.10;0.47;;;18.20;99.90;;;;;;5015116;28;20227;-89
2023/07/20 08:45:39;;;;;;;0.85;0.55;;;18.80;99.90;;;;;;5018010;28;20625;-87
2023/07/20 08:48:06;;;;;;;0.95;0.55;;;19.00;99.90;;;;;;5016869;28;20218;-89
2023/07/20 08:50:33;;;;;;;1.23;0.65;;;18.90;99.90;;;;;;5015573;28;20172;-89
2023/07/20 08:53:00;;;;;;;1.10;0.60;;;18.70;99.90;;;;;;5016890;28;20183;-91
2023/07/20 08:55:27;;;;;;;2.95;0.50;;;18.50;99.90;;;;;;5017821;28;20213;-92
2023/07/20 08:57:57;;;;;;;1.13;0.70;;;18.40;99.90;;;;;;5016890;28;20513;-91
2023/07/20 09:00:35;;;;;;;0.50;0.45;;;18.20;99.90;;;;;;5016976;28;20691;-93
2023/07/20 09:03:03;;;;;;;1.20;0.60;;;18.20;99.90;;;;;;5017825;28;20191;-91
2023/07/20 09:05:29;;;;;;;1.50;0.50;;;18.10;99.90;;;;;;5016286;28;20183;-91
2023/07/20 09:07:55;;;;;;;1.38;0.50;;;17.90;99.90;;;;;;5016638;28;20215;-89
2023/07/20 09:10:24;;;;;;;1.25;0.50;;;18.00;99.90;;;;;;5017509;28;20286;-90
2023/07/20 09:12:53;;;;;;;1.33;0.55;;;18.20;99.90;;;;;;5016222;28;20179;-91
2023/07/20 09:15:19;;;;;;;1.38;0.57;;;18.30;99.90;;;;;;5016123;28;20610;-88
2023/07/20 09:17:49;;;;;;;2.55;0.73;;;18.30;99.90;;;;;;5015933;28;20198;-89
2023/07/20 09:20:18;;;;;;;1.75;0.52;;;18.20;99.90;;;;;;5015538;28;20237;-87
2023/07/20 09:22:44;;;;;;;1.00;0.55;;;18.30;99.90;;;;;;5011982;28;20257;-88
2023/07/20 09:25:15;;;;;;;1.00;0.43;;;18.60;99.90;;;;;;4995996;28;20179;-87
2023/07/20 09:27:46;;;;;;;0.45;0.40;;;18.80;99.90;;;;;;4997087;28;20196;-88
2023/07/20 09:30:16;;;;;;;0.98;0.40;;;18.90;99.90;;;;;;4996389;28;20706;-88
2023/07/20 09:32:44;;;;;;;1.10;0.70;;;19.00;99.90;;;;;;4995770;28;20259;-89
2023/07/20 09:35:18;;;;;;;1.30;0.70;;;19.30;99.90;;;;;;5011337;28;20191;-86
2023/07/20 09:38:01;;;;;;;0.85;0.50;;;19.50;99.90;;;;;;4996854;28;20172;-87
2023/07/20 09:40:28;;;;;;;1.02;0.50;;;19.70;99.90;;;;;;4997897;28;20207;-88
2023/07/20 09:43:03;;;;;;;1.10;0.47;;;19.60;98.80;;;;;;5014732;28;20175;-90
2023/07/20 09:45:50;;;;;;;1.75;0.55;;;19.60;99.90;;;;;;5015471;28;20186;-88
2023/07/20 09:48:15;;;;;;;0.40;0.40;;;19.80;99.90;;;;;;5016207;28;20195;-88
2023/07/20 09:50:49;;;;;;;1.17;0.50;;;20.00;99.90;;;;;;5015329;28;20191;-88
2023/07/20 09:53:17;;;;;;;0.95;0.47;;;20.30;99.90;;;;;;5015030;28;20175;-88
2023/07/20 09:55:44;;;;;;;1.48;0.43;;;20.40;99.90;;;;;;5014899;28;20187;-87
2023/07/20 09:58:11;;;;;;;0.50;0.30;;;20.40;96.80;;;;;;5014974;28;20179;-88
2023/07/20 10:00:38;;;;;;;0.52;0.30;;;20.60;96.80;;;;;;5014427;28;20171;-88
2023/07/20 10:03:05;;;;;;;0.65;0.40;;;20.70;97.50;;;;;;5015036;28;20179;-89
2023/07/20 10:05:36;;;;;;;0.70;0.40;;;20.50;98.00;;;;;;5014622;28;20187;-86
2023/07/20 10:08:05;;;;;;;0.88;0.50;;;20.50;98.00;;;;;;5015530;28;20289;-87
2023/07/20 10:10:33;;;;;;;1.35;0.60;;;20.70;97.20;;;;;;5014632;28;20187;-87
2023/07/20 10:13:01;;;;;;;0.52;0.40;;;20.80;96.30;;;;;;5015714;28;20174;-87
2023/07/20 10:15:45;;;;;;;0.65;0.50;;;21.10;98.10;;;;;;5015521;28;20175;-87
2023/07/20 10:18:23;;;;;;;1.02;0.50;;;21.20;98.70;;;;;;5015782;28;20167;-88
2023/07/20 10:20:54;;;;;;;0.75;0.43;;;21.40;98.50;;;;;;5015543;28;20167;-90
2023/07/20 10:23:20;;;;;;;1.08;0.52;;;21.50;98.30;;;;;;5015392;28;20467;-88
2023/07/20 10:25:46;;;;;;;0.68;0.40;;;21.70;98.60;;;;;;5015581;28;20173;-87
2023/07/20 10:28:13;;;;;;;1.40;0.52;;;21.80;97.00;;;;;;5013985;28;20202;-90
2023/07/20 10:30:41;;;;;;;0.80;0.40;;;21.80;96.20;;;;;;5014173;28;20179;-87
2023/07/20 10:33:08;;;;;;;1.08;0.52;;;21.70;95.10;;;;;;5014504;28;20171;-89
2023/07/20 10:35:57;;;;;;;1.80;0.50;;;21.70;96.00;;;;;;5014221;28;20257;-89
2023/07/20 10:38:45;;;;;;;1.15;0.60;;;21.90;97.50;;;;;;5015531;28;20218;-89
2023/07/20 10:41:35;;;;;;;3.97;1.15;;;22.00;96.40;;;;;;5013639;28;20186;-89
2023/07/20 10:44:08;;;;;;;1.10;0.45;;;21.50;94.60;;;;;;5013900;28;20751;-87
2023/07/20 10:46:39;;;;;;;0.50;0.50;;;21.20;96.00;;;;;;5014106;28;20187;-87
2023/07/20 10:49:07;;;;;;;0.85;0.50;;;21.00;95.60;;;;;;5014134;28;20215;-88
2023/07/20 10:51:43;;;;;;;0.70;0.40;;;20.70;96.60;;;;;;5014121;28;20920;-88
2023/07/20 10:54:18;;;;;;;1.63;0.60;;;20.40;95.70;;;;;;5014821;28;20634;-89
2023/07/20 10:56:47;;;;;;;1.52;0.50;;;20.20;96.10;;;;;;4980557;28;20188;-88
2023/07/20 10:59:36;;;;;;;1.55;0.55;;;20.00;96.50;;;;;;4975353;28;20208;-88
2023/07/20 11:02:07;;;;;;;0.70;0.60;;;20.10;97.10;;;;;;4974396;28;20181;-89
2023/07/20 11:04:44;;;;;;;2.20;0.63;;;20.40;97.30;;;;;;4974684;28;20272;-88
2023/07/20 11:07:10;;;;;;;3.67;0.60;;;20.70;97.40;;;;;;4974496;28;20184;-90
2023/07/20 11:09:39;;;;;;;0.73;0.35;;;21.10;96.70;;;;;;4975965;28;20255;-89
2023/07/20 11:12:15;;;;;;;1.73;0.52;;;21.50;97.60;;;;;;5004854;28;20214;-89
2023/07/20 11:14:59;;;;;;;1.27;0.60;;;21.50;96.60;;;;;;5013688;28;20171;-87
2023/07/20 11:17:32;;;;;;;2.38;0.55;;;21.30;96.30;;;;;;5014786;28;20155;-89
2023/07/20 11:20:01;;;;;;;0.95;0.45;;;21.30;95.10;;;;;;5013492;28;20270;-88
2023/07/20 11:22:31;;;;;;;3.47;0.60;;;21.40;97.00;;;;;;5013623;28;20500;-89
2023/07/20 11:24:58;;;;;;;0.95;0.60;;;21.70;97.30;;;;;;5013358;28;20216;-88
2023/07/20 11:27:23;;;;;;;1.35;0.50;;;22.00;97.40;;;;;;5013437;28;20190;-89
2023/07/20 11:29:50;;;;;;;3.03;0.60;;;22.40;94.50;;;;;;5013388;28;20741;-87
2023/07/20 11:32:24;;;;;;;1.10;0.50;;;22.80;94.80;;;;;;5013475;28;20186;-89
2023/07/20 11:34:50;;;;;;;1.73;0.60;;;22.90;94.10;;;;;;5013761;28;20183;-93
2023/07/20 11:37:18;;;;;;;2.15;0.63;;;23.10;95.10;;;;;;5014250;28;20271;-90
2023/07/20 11:39:43;;;;;;;2.33;0.50;;;23.30;93.20;;;;;;5014838;28;20202;-89
2023/07/20 11:42:12;;;;;;;3.83;0.40;;;23.30;92.60;;;;;;5014635;28;20186;-87
2023/07/20 11:44:38;;;;;;;1.40;0.60;;;23.20;93.40;;;;;;5013365;28;20254;-88
2023/07/20 11:47:11;;;;;;;2.22;0.60;;;23.20;91.10;;;;;;5014505;28;20632;-88
2023/07/20 11:49:38;;;;;;;0.50;0.40;;;23.10;90.90;;;;;;5013443;28;20553;-88
2023/07/20 11:52:09;;;;;;;0.60;0.40;;;22.90;91.20;;;;;;5013125;28;20186;-89
2023/07/20 11:54:37;;;;;;;0.65;0.55;;;22.70;91.80;;;;;;5013278;28;20171;-89
2023/07/20 11:57:03;;;;;;;0.80;0.60;;;22.30;91.70;;;;;;5014469;28;20171;-88
2023/07/20 11:59:29;;;;;;;2.17;0.60;;;21.80;92.10;;;;;;5012908;28;20183;-87
2023/07/20 12:01:55;;;;;;;1.08;0.50;;;21.50;93.00;;;;;;5013297;28;20305;-87
2023/07/20 12:04:23;;;;;;;2.78;0.60;;;21.20;92.50;;;;;;5014819;28;20491;-88
2023/07/20 12:06:48;;;;;;;1.95;0.52;;;21.10;92.90;;;;;;5018246;28;20218;-87
2023/07/20 12:09:16;;;;;;;4.00;0.60;;;21.10;92.20;;;;;;5017190;28;20227;-88
2023/07/20 12:11:47;;;;;;;1.15;0.57;;;21.00;93.20;;;;;;5016786;28;20560;-89
2023/07/20 12:14:13;;;;;;;1.98;0.40;;;20.90;93.30;;;;;;5018386;28;20167;-90
2023/07/20 12:16:39;;;;;;;1.35;0.68;;;20.80;93.40;;;;;;5017103;28;20182;-88
2023/07/20 12:19:10;;;;;;;2.17;0.57;;;20.70;93.50;;;;;;5016743;28;20183;-91
2023/07/20 12:21:37;;;;;;;3.17;0.60;;;20.70;93.00;;;;;;5017064;28;20274;-87
2023/07/20 12:24:04;;;;;;;1.92;0.52;;;20.60;94.30;;;;;;5017215;28;20202;-88
2023/07/20 12:26:31;;;;;;;1.85;0.52;;;20.70;95.50;;;;;;5016426;28;20176;-91
2023/07/20 12:28:56;;;;;;;0.93;0.63;;;21.20;94.80;;;;;;5017953;28;20265;-86
2023/07/20 12:31:24;;;;;;;1.70;0.63;;;21.70;94.00;;;;;;5016722;28;20175;-89
2023/07/20 12:33:51;;;;;;;1.45;0.70;;;22.00;90.80;;;;;;5016464;28;20179;-88
2023/07/20 12:36:18;;;;;;;1.38;0.50;;;22.30;90.80;;;;;;5016522;28;20202;-89
2023/07/20 12:38:43;;;;;;;1.65;0.50;;;22.60;91.40;;;;;;5017618;28;20167;-89
2023/07/20 12:41:13;;;;;;;1.55;0.60;;;22.60;91.20;;;;;;5016350;28;20681;-88
2023/07/20 12:43:40;;;;;;;2.42;0.70;;;22.40;90.00;;;;;;5016308;28;20238;-88
2023/07/20 12:46:06;;;;;;;0.57;0.52;;;22.20;90.10;;;;;;5016161;28;20609;-89
2023/07/20 12:48:31;;;;;;;2.78;0.60;;;21.80;91.10;;;;;;5016178;28;20301;-86
2023/07/20 12:50:58;;;;;;;4.20;0.85;;;21.60;90.50;;;;;;5016193;28;20647;-90
2023/07/20 12:53:26;;;;;;;0.95;0.60;;;21.40;92.30;;;;;;5017404;28;20537;-88